sensor_id;sensor_type;location;lat;lon;timestamp;temperature;humidity
1936;DHT22;969;49.892;10.896;2023-01-19T00:00:23;21.50;54.10
1936;DHT22;969;49.892;10.896;2023-01-19T00:02:49;21.50;54.10
1936;DHT22;969;49.892;10.896;2023-01-19T00:05:15;21.50;54.20
1936;DHT22;969;49.892;10.896;2023-01-19T00:07:41;21.40;54.00
1936;DHT22;969;49.892;10.896;2023-01-19T00:10:08;21.50;54.10
1936;DHT22;969;49.892;10.896;2023-01-19T00:12:33;21.50;54.10
1936;DHT22;969;49.892;10.896;2023-01-19T00:14:59;21.50;54.10
1936;DHT22;969;49.892;10.896;2023-01-19T00:17:25;21.50;54.10
1936;DHT22;969;49.892;10.896;2023-01-19T00:19:50;21.50;54.10
1936;DHT22;969;49.892;10.896;2023-01-19T00:22:16;21.50;54.10
1936;DHT22;969;49.892;10.896;2023-01-19T00:24:42;21.50;54.10
1936;DHT22;969;49.892;10.896;2023-01-19T00:27:08;21.50;54.10
1936;DHT22;969;49.892;10.896;2023-01-19T00:29:34;21.50;54.10
1936;DHT22;969;49.892;10.896;2023-01-19T00:32:01;21.50;54.10
1936;DHT22;969;49.892;10.896;2023-01-19T00:34:27;21.50;54.10
1936;DHT22;969;49.892;10.896;2023-01-19T00:37:08;21.40;54.00
1936;DHT22;969;49.892;10.896;2023-01-19T00:39:34;21.50;54.10
1936;DHT22;969;49.892;10.896;2023-01-19T00:42:00;21.40;54.00
1936;DHT22;969;49.892;10.896;2023-01-19T00:44:44;21.40;54.00
1936;DHT22;969;49.892;10.896;2023-01-19T00:47:09;21.40;54.00
1936;DHT22;969;49.892;10.896;2023-01-19T00:49:35;21.40;54.00
1936;DHT22;969;49.892;10.896;2023-01-19T00:52:00;21.40;54.00
1936;DHT22;969;49.892;10.896;2023-01-19T00:54:26;21.40;54.00
1936;DHT22;969;49.892;10.896;2023-01-19T00:56:52;21.40;54.00
1936;DHT22;969;49.892;10.896;2023-01-19T00:59:17;21.40;54.00
1936;DHT22;969;49.892;10.896;2023-01-19T01:01:43;21.40;54.00
1936;DHT22;969;49.892;10.896;2023-01-19T01:04:09;21.40;54.00
1936;DHT22;969;49.892;10.896;2023-01-19T01:06:36;21.40;54.00
1936;DHT22;969;49.892;10.896;2023-01-19T01:09:02;21.40;54.00
1936;DHT22;969;49.892;10.896;2023-01-19T01:11:38;21.30;53.90
1936;DHT22;969;49.892;10.896;2023-01-19T01:14:04;21.40;54.00
1936;DHT22;969;49.892;10.896;2023-01-19T01:16:30;21.40;54.00
1936;DHT22;969;49.892;10.896;2023-01-19T01:18:55;21.40;54.00
1936;DHT22;969;49.892;10.896;2023-01-19T01:21:21;21.30;53.90
1936;DHT22;969;49.892;10.896;2023-01-19T01:23:48;21.40;54.00
1936;DHT22;969;49.892;10.896;2023-01-19T01:26:13;21.40;54.00
1936;DHT22;969;49.892;10.896;2023-01-19T01:28:39;21.40;54.10
1936;DHT22;969;49.892;10.896;2023-01-19T01:31:04;21.30;53.90
1936;DHT22;969;49.892;10.896;2023-01-19T01:33:30;21.30;54.00
1936;DHT22;969;49.892;10.896;2023-01-19T01:35:56;21.40;54.00
1936;DHT22;969;49.892;10.896;2023-01-19T01:38:21;21.30;53.90
1936;DHT22;969;49.892;10.896;2023-01-19T01:40:47;21.30;53.90
1936;DHT22;969;49.892;10.896;2023-01-19T01:43:14;21.30;53.90
1936;DHT22;969;49.892;10.896;2023-01-19T01:45:40;21.30;53.90
1936;DHT22;969;49.892;10.896;2023-01-19T01:50:42;21.30;53.90
1936;DHT22;969;49.892;10.896;2023-01-19T01:53:30;21.30;53.90
1936;DHT22;969;49.892;10.896;2023-01-19T01:55:56;21.30;53.90
1936;DHT22;969;49.892;10.896;2023-01-19T01:58:22;21.30;54.50
1936;DHT22;969;49.892;10.896;2023-01-19T02:00:48;21.30;53.90
1936;DHT22;969;49.892;10.896;2023-01-19T02:03:32;21.30;53.90
1936;DHT22;969;49.892;10.896;2023-01-19T02:06:00;21.30;53.90
1936;DHT22;969;49.892;10.896;2023-01-19T02:08:52;21.30;53.90
1936;DHT22;969;49.892;10.896;2023-01-19T02:11:36;21.30;53.90
1936;DHT22;969;49.892;10.896;2023-01-19T02:14:21;21.30;53.90
1936;DHT22;969;49.892;10.896;2023-01-19T02:16:47;21.30;53.90
1936;DHT22;969;49.892;10.896;2023-01-19T02:19:16;21.30;53.90
1936;DHT22;969;49.892;10.896;2023-01-19T02:24:15;21.30;54.00
1936;DHT22;969;49.892;10.896;2023-01-19T02:26:44;21.30;53.90
1936;DHT22;969;49.892;10.896;2023-01-19T02:29:14;21.30;53.90
1936;DHT22;969;49.892;10.896;2023-01-19T02:31:40;21.30;53.90
1936;DHT22;969;49.892;10.896;2023-01-19T02:34:09;21.30;53.90
1936;DHT22;969;49.892;10.896;2023-01-19T02:39:14;21.30;54.50
1936;DHT22;969;49.892;10.896;2023-01-19T02:41:48;21.20;53.80
1936;DHT22;969;49.892;10.896;2023-01-19T02:44:17;21.30;53.90
1936;DHT22;969;49.892;10.896;2023-01-19T02:46:44;21.30;53.90
1936;DHT22;969;49.892;10.896;2023-01-19T02:49:10;21.30;53.90
1936;DHT22;969;49.892;10.896;2023-01-19T02:51:35;21.30;53.90
1936;DHT22;969;49.892;10.896;2023-01-19T02:59:14;21.30;53.90
1936;DHT22;969;49.892;10.896;2023-01-19T03:07:09;21.20;53.90
1936;DHT22;969;49.892;10.896;2023-01-19T03:12:33;21.20;53.90
1936;DHT22;969;49.892;10.896;2023-01-19T03:15:13;21.20;53.90
1936;DHT22;969;49.892;10.896;2023-01-19T03:17:42;21.20;53.90
1936;DHT22;969;49.892;10.896;2023-01-19T03:20:10;21.20;53.90
1936;DHT22;969;49.892;10.896;2023-01-19T03:22:38;21.20;53.90
1936;DHT22;969;49.892;10.896;2023-01-19T03:25:04;21.20;53.90
1936;DHT22;969;49.892;10.896;2023-01-19T03:27:34;21.20;53.90
1936;DHT22;969;49.892;10.896;2023-01-19T03:30:16;21.20;53.90
1936;DHT22;969;49.892;10.896;2023-01-19T03:32:52;21.20;53.90
1936;DHT22;969;49.892;10.896;2023-01-19T03:35:22;21.20;53.90
1936;DHT22;969;49.892;10.896;2023-01-19T03:37:51;21.20;53.90
1936;DHT22;969;49.892;10.896;2023-01-19T03:40:19;21.20;53.90
1936;DHT22;969;49.892;10.896;2023-01-19T03:42:46;21.20;53.90
1936;DHT22;969;49.892;10.896;2023-01-19T03:45:14;21.20;53.90
1936;DHT22;969;49.892;10.896;2023-01-19T03:47:40;21.20;53.90
1936;DHT22;969;49.892;10.896;2023-01-19T03:50:10;21.20;53.90
1936;DHT22;969;49.892;10.896;2023-01-19T03:52:38;21.20;53.80
1936;DHT22;969;49.892;10.896;2023-01-19T03:55:04;21.20;53.90
1936;DHT22;969;49.892;10.896;2023-01-19T03:57:30;21.20;53.90
1936;DHT22;969;49.892;10.896;2023-01-19T03:59:56;21.20;53.90
1936;DHT22;969;49.892;10.896;2023-01-19T04:02:23;21.20;54.00
1936;DHT22;969;49.892;10.896;2023-01-19T04:04:48;21.20;53.90
1936;DHT22;969;49.892;10.896;2023-01-19T04:07:14;21.20;54.00
1936;DHT22;969;49.892;10.896;2023-01-19T04:09:40;21.20;54.00
1936;DHT22;969;49.892;10.896;2023-01-19T04:12:06;21.10;53.90
1936;DHT22;969;49.892;10.896;2023-01-19T04:14:31;21.20;54.00
1936;DHT22;969;49.892;10.896;2023-01-19T04:16:57;21.20;54.00
1936;DHT22;969;49.892;10.896;2023-01-19T04:19:23;21.10;54.00
1936;DHT22;969;49.892;10.896;2023-01-19T04:21:49;21.10;54.00
1936;DHT22;969;49.892;10.896;2023-01-19T04:24:15;21.10;54.00
1936;DHT22;969;49.892;10.896;2023-01-19T04:26:41;21.10;54.00
1936;DHT22;969;49.892;10.896;2023-01-19T04:29:07;21.10;54.00
1936;DHT22;969;49.892;10.896;2023-01-19T04:31:33;21.10;54.00
1936;DHT22;969;49.892;10.896;2023-01-19T04:34:00;21.10;54.00
1936;DHT22;969;49.892;10.896;2023-01-19T04:36:26;21.10;54.00
1936;DHT22;969;49.892;10.896;2023-01-19T04:38:53;21.10;54.00
1936;DHT22;969;49.892;10.896;2023-01-19T04:41:18;21.10;54.00
1936;DHT22;969;49.892;10.896;2023-01-19T04:43:44;21.10;54.10
1936;DHT22;969;49.892;10.896;2023-01-19T04:46:12;21.00;54.00
1936;DHT22;969;49.892;10.896;2023-01-19T04:48:38;21.10;54.10
1936;DHT22;969;49.892;10.896;2023-01-19T04:51:03;21.00;54.00
1936;DHT22;969;49.892;10.896;2023-01-19T04:53:29;21.10;54.10
1936;DHT22;969;49.892;10.896;2023-01-19T04:55:55;21.00;54.00
1936;DHT22;969;49.892;10.896;2023-01-19T04:58:21;21.00;54.00
1936;DHT22;969;49.892;10.896;2023-01-19T05:00:46;21.00;54.00
1936;DHT22;969;49.892;10.896;2023-01-19T05:03:12;21.00;54.00
1936;DHT22;969;49.892;10.896;2023-01-19T05:05:38;21.00;54.00
1936;DHT22;969;49.892;10.896;2023-01-19T05:08:03;21.00;54.00
1936;DHT22;969;49.892;10.896;2023-01-19T05:10:29;21.00;54.00
1936;DHT22;969;49.892;10.896;2023-01-19T05:12:55;21.00;54.00
1936;DHT22;969;49.892;10.896;2023-01-19T05:15:20;21.00;54.00
1936;DHT22;969;49.892;10.896;2023-01-19T05:17:46;21.00;54.00
1936;DHT22;969;49.892;10.896;2023-01-19T05:20:12;21.00;54.00
1936;DHT22;969;49.892;10.896;2023-01-19T05:22:38;21.00;54.00
1936;DHT22;969;49.892;10.896;2023-01-19T05:25:05;21.00;54.00
1936;DHT22;969;49.892;10.896;2023-01-19T05:27:33;21.00;54.00
1936;DHT22;969;49.892;10.896;2023-01-19T05:29:58;21.00;54.50
1936;DHT22;969;49.892;10.896;2023-01-19T05:32:24;21.00;54.00
1936;DHT22;969;49.892;10.896;2023-01-19T05:34:50;21.00;54.00
1936;DHT22;969;49.892;10.896;2023-01-19T05:37:15;21.00;54.00
1936;DHT22;969;49.892;10.896;2023-01-19T05:39:41;21.00;53.90
1936;DHT22;969;49.892;10.896;2023-01-19T05:42:06;21.00;53.90
1936;DHT22;969;49.892;10.896;2023-01-19T05:44:32;21.00;53.90
1936;DHT22;969;49.892;10.896;2023-01-19T05:46:58;21.00;53.90
1936;DHT22;969;49.892;10.896;2023-01-19T05:49:23;21.00;53.90
1936;DHT22;969;49.892;10.896;2023-01-19T05:51:49;21.00;53.80
1936;DHT22;969;49.892;10.896;2023-01-19T05:54:14;21.00;53.80
1936;DHT22;969;49.892;10.896;2023-01-19T05:56:41;21.00;54.40
1936;DHT22;969;49.892;10.896;2023-01-19T05:59:07;21.00;53.80
1936;DHT22;969;49.892;10.896;2023-01-19T06:01:32;21.00;53.80
1936;DHT22;969;49.892;10.896;2023-01-19T06:04:00;21.00;53.80
1936;DHT22;969;49.892;10.896;2023-01-19T06:06:25;21.00;53.80
1936;DHT22;969;49.892;10.896;2023-01-19T06:08:51;21.00;53.80
1936;DHT22;969;49.892;10.896;2023-01-19T06:11:16;21.00;53.80
1936;DHT22;969;49.892;10.896;2023-01-19T06:13:42;21.00;53.80
1936;DHT22;969;49.892;10.896;2023-01-19T06:16:08;21.00;53.80
1936;DHT22;969;49.892;10.896;2023-01-19T06:18:34;21.00;53.70
1936;DHT22;969;49.892;10.896;2023-01-19T06:21:06;21.00;53.70
1936;DHT22;969;49.892;10.896;2023-01-19T06:23:34;21.00;53.80
1936;DHT22;969;49.892;10.896;2023-01-19T06:26:01;21.00;53.70
1936;DHT22;969;49.892;10.896;2023-01-19T06:28:26;21.10;53.80
1936;DHT22;969;49.892;10.896;2023-01-19T06:30:54;21.10;53.80
1936;DHT22;969;49.892;10.896;2023-01-19T06:33:20;21.10;53.80
1936;DHT22;969;49.892;10.896;2023-01-19T06:35:47;21.10;53.80
1936;DHT22;969;49.892;10.896;2023-01-19T06:38:13;21.10;53.80
1936;DHT22;969;49.892;10.896;2023-01-19T06:40:40;21.10;53.80
1936;DHT22;969;49.892;10.896;2023-01-19T06:43:06;21.10;53.90
1936;DHT22;969;49.892;10.896;2023-01-19T06:45:32;21.20;54.00
1936;DHT22;969;49.892;10.896;2023-01-19T06:47:58;21.20;54.00
1936;DHT22;969;49.892;10.896;2023-01-19T06:50:23;21.20;54.00
1936;DHT22;969;49.892;10.896;2023-01-19T06:52:50;21.20;53.90
1936;DHT22;969;49.892;10.896;2023-01-19T06:55:16;21.20;53.90
1936;DHT22;969;49.892;10.896;2023-01-19T06:57:42;21.20;53.90
1936;DHT22;969;49.892;10.896;2023-01-19T07:00:10;21.20;53.90
1936;DHT22;969;49.892;10.896;2023-01-19T07:02:44;21.20;53.90
1936;DHT22;969;49.892;10.896;2023-01-19T07:05:10;21.20;53.90
1936;DHT22;969;49.892;10.896;2023-01-19T07:07:38;21.30;54.00
1936;DHT22;969;49.892;10.896;2023-01-19T07:10:06;21.30;53.90
1936;DHT22;969;49.892;10.896;2023-01-19T07:12:32;21.30;53.90
1936;DHT22;969;49.892;10.896;2023-01-19T07:14:58;21.30;53.90
1936;DHT22;969;49.892;10.896;2023-01-19T07:17:24;21.30;53.90
1936;DHT22;969;49.892;10.896;2023-01-19T07:19:49;21.30;53.90
1936;DHT22;969;49.892;10.896;2023-01-19T07:22:15;21.40;54.00
1936;DHT22;969;49.892;10.896;2023-01-19T07:24:41;21.30;53.90
1936;DHT22;969;49.892;10.896;2023-01-19T07:27:07;21.40;54.00
1936;DHT22;969;49.892;10.896;2023-01-19T07:29:32;21.40;54.00
1936;DHT22;969;49.892;10.896;2023-01-19T07:31:58;21.40;53.90
1936;DHT22;969;49.892;10.896;2023-01-19T07:34:24;21.40;53.90
1936;DHT22;969;49.892;10.896;2023-01-19T07:36:50;21.40;53.90
1936;DHT22;969;49.892;10.896;2023-01-19T07:39:15;21.40;53.90
1936;DHT22;969;49.892;10.896;2023-01-19T07:41:41;21.40;53.90
1936;DHT22;969;49.892;10.896;2023-01-19T07:44:06;21.40;53.90
1936;DHT22;969;49.892;10.896;2023-01-19T07:46:33;21.40;53.90
1936;DHT22;969;49.892;10.896;2023-01-19T07:48:58;21.40;53.90
1936;DHT22;969;49.892;10.896;2023-01-19T07:51:24;21.40;53.90
1936;DHT22;969;49.892;10.896;2023-01-19T07:53:50;21.40;53.80
1936;DHT22;969;49.892;10.896;2023-01-19T07:56:16;21.40;53.80
1936;DHT22;969;49.892;10.896;2023-01-19T07:58:42;21.40;53.80
1936;DHT22;969;49.892;10.896;2023-01-19T08:01:10;21.40;53.80
1936;DHT22;969;49.892;10.896;2023-01-19T08:03:38;21.40;53.80
1936;DHT22;969;49.892;10.896;2023-01-19T08:06:05;21.40;53.80
1936;DHT22;969;49.892;10.896;2023-01-19T08:08:31;21.40;53.80
1936;DHT22;969;49.892;10.896;2023-01-19T08:10:57;21.50;53.90
1936;DHT22;969;49.892;10.896;2023-01-19T08:13:23;21.50;53.90
1936;DHT22;969;49.892;10.896;2023-01-19T08:15:50;21.40;53.80
1936;DHT22;969;49.892;10.896;2023-01-19T08:18:16;21.40;53.80
1936;DHT22;969;49.892;10.896;2023-01-19T08:20:42;21.40;53.80
1936;DHT22;969;49.892;10.896;2023-01-19T08:23:08;21.40;53.80
1936;DHT22;969;49.892;10.896;2023-01-19T08:25:36;21.40;53.80
1936;DHT22;969;49.892;10.896;2023-01-19T08:28:04;21.40;53.80
1936;DHT22;969;49.892;10.896;2023-01-19T08:30:30;21.40;53.90
1936;DHT22;969;49.892;10.896;2023-01-19T08:32:56;21.40;53.80
1936;DHT22;969;49.892;10.896;2023-01-19T08:35:32;21.40;53.90
1936;DHT22;969;49.892;10.896;2023-01-19T08:37:59;21.40;53.90
1936;DHT22;969;49.892;10.896;2023-01-19T08:40:34;21.40;53.80
1936;DHT22;969;49.892;10.896;2023-01-19T08:43:05;21.40;53.90
1936;DHT22;969;49.892;10.896;2023-01-19T08:45:33;21.40;53.90
1936;DHT22;969;49.892;10.896;2023-01-19T08:47:59;21.40;53.90
1936;DHT22;969;49.892;10.896;2023-01-19T08:50:27;21.40;53.90
1936;DHT22;969;49.892;10.896;2023-01-19T08:53:00;21.40;53.90
1936;DHT22;969;49.892;10.896;2023-01-19T08:55:27;21.30;53.80
1936;DHT22;969;49.892;10.896;2023-01-19T08:57:54;21.40;53.90
1936;DHT22;969;49.892;10.896;2023-01-19T09:00:22;21.40;53.90
1936;DHT22;969;49.892;10.896;2023-01-19T09:02:49;21.40;53.90
1936;DHT22;969;49.892;10.896;2023-01-19T09:05:16;21.40;54.00
1936;DHT22;969;49.892;10.896;2023-01-19T09:07:43;21.40;53.90
1936;DHT22;969;49.892;10.896;2023-01-19T09:10:11;21.40;54.00
1936;DHT22;969;49.892;10.896;2023-01-19T09:12:36;21.40;53.90
1936;DHT22;969;49.892;10.896;2023-01-19T09:15:02;21.40;54.00
1936;DHT22;969;49.892;10.896;2023-01-19T09:17:28;21.40;53.90
1936;DHT22;969;49.892;10.896;2023-01-19T09:19:53;21.40;53.90
1936;DHT22;969;49.892;10.896;2023-01-19T09:22:19;21.40;53.90
1936;DHT22;969;49.892;10.896;2023-01-19T09:24:44;21.40;53.90
1936;DHT22;969;49.892;10.896;2023-01-19T09:27:10;21.40;53.90
1936;DHT22;969;49.892;10.896;2023-01-19T09:29:35;21.40;53.90
1936;DHT22;969;49.892;10.896;2023-01-19T09:32:01;21.40;53.90
1936;DHT22;969;49.892;10.896;2023-01-19T09:34:27;21.40;53.90
1936;DHT22;969;49.892;10.896;2023-01-19T09:36:53;21.40;53.90
1936;DHT22;969;49.892;10.896;2023-01-19T09:39:19;21.40;53.90
1936;DHT22;969;49.892;10.896;2023-01-19T09:41:48;21.40;53.90
1936;DHT22;969;49.892;10.896;2023-01-19T17:35:35;18.60;43.80
1936;DHT22;969;49.892;10.896;2023-01-19T17:38:01;18.60;43.80
1936;DHT22;969;49.892;10.896;2023-01-19T17:40:29;18.60;43.70
1936;DHT22;969;49.892;10.896;2023-01-19T17:42:55;18.60;43.60
1936;DHT22;969;49.892;10.896;2023-01-19T17:45:20;18.50;43.40
1936;DHT22;969;49.892;10.896;2023-01-19T17:47:49;18.50;43.50
1936;DHT22;969;49.892;10.896;2023-01-19T17:54:35;18.40;45.60
1936;DHT22;969;49.892;10.896;2023-01-19T17:57:05;18.60;46.00
1936;DHT22;969;49.892;10.896;2023-01-19T17:59:32;18.90;45.60
1936;DHT22;969;49.892;10.896;2023-01-19T18:01:57;18.90;44.90
1936;DHT22;969;49.892;10.896;2023-01-19T18:04:23;19.00;45.20
1936;DHT22;969;49.892;10.896;2023-01-19T18:06:49;19.00;45.00
1936;DHT22;969;49.892;10.896;2023-01-19T18:09:14;19.00;44.90
1936;DHT22;969;49.892;10.896;2023-01-19T18:11:40;19.10;44.80
1936;DHT22;969;49.892;10.896;2023-01-19T18:14:07;19.10;44.80
1936;DHT22;969;49.892;10.896;2023-01-19T18:16:33;19.10;44.70
1936;DHT22;969;49.892;10.896;2023-01-19T18:18:59;19.10;44.70
1936;DHT22;969;49.892;10.896;2023-01-19T18:21:28;19.10;44.60
1936;DHT22;969;49.892;10.896;2023-01-19T18:24:00;19.10;44.60
1936;DHT22;969;49.892;10.896;2023-01-19T18:26:26;19.10;44.50
1936;DHT22;969;49.892;10.896;2023-01-19T18:28:54;19.10;44.60
1936;DHT22;969;49.892;10.896;2023-01-19T18:31:24;19.10;44.50
1936;DHT22;969;49.892;10.896;2023-01-19T18:33:50;19.10;44.50
1936;DHT22;969;49.892;10.896;2023-01-19T18:36:16;19.10;44.40
1936;DHT22;969;49.892;10.896;2023-01-19T18:38:43;19.10;44.40
1936;DHT22;969;49.892;10.896;2023-01-19T19:30:20;18.70;44.60
1936;DHT22;969;49.892;10.896;2023-01-19T19:32:53;18.70;44.60
1936;DHT22;969;49.892;10.896;2023-01-19T19:35:23;18.70;44.60
1936;DHT22;969;49.892;10.896;2023-01-19T19:37:49;18.70;44.60
1936;DHT22;969;49.892;10.896;2023-01-19T19:40:16;18.70;44.70
1936;DHT22;969;49.892;10.896;2023-01-19T19:42:41;18.70;44.60
1936;DHT22;969;49.892;10.896;2023-01-19T19:45:08;18.70;44.60
1936;DHT22;969;49.892;10.896;2023-01-19T19:47:33;18.70;44.60
1936;DHT22;969;49.892;10.896;2023-01-19T19:50:02;18.70;44.60
1936;DHT22;969;49.892;10.896;2023-01-19T19:52:28;18.70;44.60
1936;DHT22;969;49.892;10.896;2023-01-19T19:54:54;18.70;44.60
1936;DHT22;969;49.892;10.896;2023-01-19T19:57:19;18.70;44.60
1936;DHT22;969;49.892;10.896;2023-01-19T19:59:45;18.70;44.60
1936;DHT22;969;49.892;10.896;2023-01-19T20:02:11;18.70;44.60
1936;DHT22;969;49.892;10.896;2023-01-19T20:04:37;18.70;44.60
1936;DHT22;969;49.892;10.896;2023-01-19T20:07:03;18.70;44.50
1936;DHT22;969;49.892;10.896;2023-01-19T20:09:28;18.80;44.60
1936;DHT22;969;49.892;10.896;2023-01-19T20:11:54;18.70;44.50
1936;DHT22;969;49.892;10.896;2023-01-19T20:14:19;18.70;44.60
1936;DHT22;969;49.892;10.896;2023-01-19T20:16:47;18.70;44.50
1936;DHT22;969;49.892;10.896;2023-01-19T20:19:12;18.80;44.60
1936;DHT22;969;49.892;10.896;2023-01-19T20:21:39;18.70;44.50
1936;DHT22;969;49.892;10.896;2023-01-19T20:24:13;18.70;44.50
1936;DHT22;969;49.892;10.896;2023-01-19T20:26:42;18.80;44.60
1936;DHT22;969;49.892;10.896;2023-01-19T20:29:08;18.70;44.60
1936;DHT22;969;49.892;10.896;2023-01-19T20:31:41;18.80;44.70
1936;DHT22;969;49.892;10.896;2023-01-19T20:34:10;18.80;44.60
1936;DHT22;969;49.892;10.896;2023-01-19T20:36:36;18.80;44.50
1936;DHT22;969;49.892;10.896;2023-01-19T20:39:04;18.80;44.50
1936;DHT22;969;49.892;10.896;2023-01-19T20:41:34;18.80;44.50
1936;DHT22;969;49.892;10.896;2023-01-19T20:44:10;18.80;44.50
1936;DHT22;969;49.892;10.896;2023-01-19T20:49:07;18.80;44.60
1936;DHT22;969;49.892;10.896;2023-01-19T20:51:32;18.80;44.60
1936;DHT22;969;49.892;10.896;2023-01-19T20:53:59;18.80;44.50
1936;DHT22;969;49.892;10.896;2023-01-19T20:56:25;18.80;44.40
1936;DHT22;969;49.892;10.896;2023-01-19T20:58:50;18.80;44.40
1936;DHT22;969;49.892;10.896;2023-01-19T21:01:22;18.80;44.40
1936;DHT22;969;49.892;10.896;2023-01-19T21:03:49;18.80;44.40
1936;DHT22;969;49.892;10.896;2023-01-19T21:06:15;18.80;44.40
1936;DHT22;969;49.892;10.896;2023-01-19T21:08:41;18.80;44.40
1936;DHT22;969;49.892;10.896;2023-01-19T21:11:07;18.80;44.40
1936;DHT22;969;49.892;10.896;2023-01-19T21:13:34;18.80;44.40
1936;DHT22;969;49.892;10.896;2023-01-19T21:16:00;18.80;44.40
1936;DHT22;969;49.892;10.896;2023-01-19T21:18:26;18.80;44.40
1936;DHT22;969;49.892;10.896;2023-01-19T21:20:53;18.80;44.40
1936;DHT22;969;49.892;10.896;2023-01-19T21:23:19;18.80;44.40
1936;DHT22;969;49.892;10.896;2023-01-19T21:25:50;18.80;44.40
1936;DHT22;969;49.892;10.896;2023-01-19T21:28:17;18.80;44.40
1936;DHT22;969;49.892;10.896;2023-01-19T21:30:44;18.80;44.40
1936;DHT22;969;49.892;10.896;2023-01-19T21:33:09;18.80;44.30
1936;DHT22;969;49.892;10.896;2023-01-19T21:35:36;18.80;44.40
1936;DHT22;969;49.892;10.896;2023-01-19T21:38:02;18.80;44.40
1936;DHT22;969;49.892;10.896;2023-01-19T21:40:27;18.80;44.40
1936;DHT22;969;49.892;10.896;2023-01-19T21:42:53;18.80;44.40
1936;DHT22;969;49.892;10.896;2023-01-19T21:45:19;18.80;44.40
1936;DHT22;969;49.892;10.896;2023-01-19T21:47:44;18.80;44.40
1936;DHT22;969;49.892;10.896;2023-01-19T21:50:10;18.80;44.40
1936;DHT22;969;49.892;10.896;2023-01-19T21:52:35;18.80;44.40
1936;DHT22;969;49.892;10.896;2023-01-19T21:55:01;18.80;44.40
1936;DHT22;969;49.892;10.896;2023-01-19T21:57:26;18.80;44.50
1936;DHT22;969;49.892;10.896;2023-01-19T21:59:52;18.80;44.50
1936;DHT22;969;49.892;10.896;2023-01-19T22:02:18;18.80;44.40
1936;DHT22;969;49.892;10.896;2023-01-19T22:04:43;18.80;44.40
1936;DHT22;969;49.892;10.896;2023-01-19T22:07:15;18.80;44.30
1936;DHT22;969;49.892;10.896;2023-01-19T22:09:40;18.90;44.20
1936;DHT22;969;49.892;10.896;2023-01-19T22:12:06;18.90;44.20
1936;DHT22;969;49.892;10.896;2023-01-19T22:14:34;18.90;44.20
1936;DHT22;969;49.892;10.896;2023-01-19T22:16:59;18.90;44.10
1936;DHT22;969;49.892;10.896;2023-01-19T22:19:25;18.90;44.00
1936;DHT22;969;49.892;10.896;2023-01-19T22:21:51;18.90;44.10
1936;DHT22;969;49.892;10.896;2023-01-19T22:24:16;18.90;44.00
1936;DHT22;969;49.892;10.896;2023-01-19T22:26:45;18.90;44.00
1936;DHT22;969;49.892;10.896;2023-01-19T22:29:10;18.90;44.00
1936;DHT22;969;49.892;10.896;2023-01-19T22:31:38;18.90;44.00
1936;DHT22;969;49.892;10.896;2023-01-19T22:34:04;18.90;44.00
1936;DHT22;969;49.892;10.896;2023-01-19T22:36:34;18.80;44.00
1936;DHT22;969;49.892;10.896;2023-01-19T22:39:02;18.80;44.60
1936;DHT22;969;49.892;10.896;2023-01-19T22:41:34;18.80;44.10
1936;DHT22;969;49.892;10.896;2023-01-19T22:44:02;18.80;44.10
1936;DHT22;969;49.892;10.896;2023-01-19T22:46:30;18.70;44.10
1936;DHT22;969;49.892;10.896;2023-01-19T22:48:56;18.70;44.10
1936;DHT22;969;49.892;10.896;2023-01-19T22:51:23;18.70;44.20
1936;DHT22;969;49.892;10.896;2023-01-19T22:53:49;18.70;44.20
1936;DHT22;969;49.892;10.896;2023-01-19T22:56:23;18.70;44.20
1936;DHT22;969;49.892;10.896;2023-01-19T22:58:49;18.70;44.20
1936;DHT22;969;49.892;10.896;2023-01-19T23:01:18;18.60;44.20
1936;DHT22;969;49.892;10.896;2023-01-19T23:03:44;18.60;44.20
1936;DHT22;969;49.892;10.896;2023-01-19T23:06:12;18.60;44.20
1936;DHT22;969;49.892;10.896;2023-01-19T23:08:38;18.50;44.10
1936;DHT22;969;49.892;10.896;2023-01-19T23:11:22;18.50;44.20
1936;DHT22;969;49.892;10.896;2023-01-19T23:13:48;18.50;44.20
1936;DHT22;969;49.892;10.896;2023-01-19T23:16:14;18.40;44.20
1936;DHT22;969;49.892;10.896;2023-01-19T23:18:40;18.40;44.20
1936;DHT22;969;49.892;10.896;2023-01-19T23:21:07;18.40;44.30
1936;DHT22;969;49.892;10.896;2023-01-19T23:23:34;18.30;44.30
1936;DHT22;969;49.892;10.896;2023-01-19T23:26:05;18.30;44.30
1936;DHT22;969;49.892;10.896;2023-01-19T23:28:31;18.20;44.30
1936;DHT22;969;49.892;10.896;2023-01-19T23:30:59;18.20;44.30
1936;DHT22;969;49.892;10.896;2023-01-19T23:33:25;18.20;44.40
1936;DHT22;969;49.892;10.896;2023-01-19T23:35:50;18.10;44.40
1936;DHT22;969;49.892;10.896;2023-01-19T23:38:16;18.10;44.40
1936;DHT22;969;49.892;10.896;2023-01-19T23:40:42;18.10;44.40
1936;DHT22;969;49.892;10.896;2023-01-19T23:43:07;18.00;44.40
1936;DHT22;969;49.892;10.896;2023-01-19T23:45:34;18.00;44.50
1936;DHT22;969;49.892;10.896;2023-01-19T23:48:00;18.00;44.50
1936;DHT22;969;49.892;10.896;2023-01-19T23:50:25;17.90;44.40
1936;DHT22;969;49.892;10.896;2023-01-19T23:52:51;17.90;44.50
1936;DHT22;969;49.892;10.896;2023-01-19T23:55:16;17.90;44.60
1936;DHT22;969;49.892;10.896;2023-01-19T23:57:42;17.90;44.60
